createdAt,value
2023-11-04T00:01:01.973Z,95405.69
2023-11-04T00:03:39.312Z,95403.09
2023-11-04T00:06:06.573Z,95398.88
2023-11-04T00:08:33.170Z,95398.88
2023-11-04T00:10:59.699Z,95401.41
2023-11-04T00:13:26.211Z,95401.41
2023-11-04T00:15:53.054Z,95400.56
2023-11-04T00:18:19.835Z,95400.56
2023-11-04T00:20:51.619Z,95400.56
2023-11-04T00:23:19.182Z,95403.97
2023-11-04T00:25:46.168Z,95404.78
2023-11-04T00:28:12.853Z,95415.03
2023-11-04T00:30:39.429Z,95409.09
2023-11-04T00:33:06.200Z,95412.47
2023-11-04T00:35:32.815Z,95423.56
2023-11-04T00:37:59.344Z,95420.16
2023-11-04T00:40:25.928Z,95427.00
2023-11-04T00:42:54.305Z,95424.44
2023-11-04T00:45:20.969Z,95427.00
2023-11-04T00:47:47.665Z,95438.06
2023-11-04T00:50:20.339Z,95435.50
2023-11-04T00:52:48.546Z,95438.94
2023-11-04T00:55:15.225Z,95437.25
2023-11-04T00:57:41.766Z,95440.63
2023-11-04T01:00:08.950Z,95437.25
2023-11-04T01:02:35.556Z,95439.78
2023-11-04T01:05:02.226Z,95441.50
2023-11-04T01:07:29.545Z,95445.75
2023-11-04T01:09:56.202Z,95439.78
2023-11-04T01:12:22.856Z,95444.91
2023-11-04T01:14:49.409Z,95447.47
2023-11-04T01:17:15.948Z,95443.19
2023-11-04T01:19:42.857Z,95448.31
2023-11-04T01:22:09.448Z,95450.88
2023-11-04T01:24:36.294Z,95449.16
2023-11-04T01:27:02.932Z,95455.16
2023-11-04T01:29:29.490Z,95447.47
2023-11-04T01:31:55.983Z,95452.59
2023-11-04T01:34:22.632Z,95450.03
2023-11-04T01:36:49.356Z,95451.75
2023-11-04T01:39:15.969Z,95450.03
2023-11-04T01:41:42.533Z,95424.56
2023-11-04T01:44:09.095Z,95451.72
2023-11-04T01:46:35.661Z,95458.53
2023-11-04T01:49:02.232Z,95456.00
2023-11-04T01:51:29.071Z,95455.97
2023-11-04T01:53:55.663Z,95458.53
2023-11-04T01:56:26.060Z,95458.53
2023-11-04T01:58:53.220Z,95453.44
2023-11-04T02:01:19.755Z,95454.28
2023-11-04T02:03:46.846Z,95456.84
2023-11-04T02:06:13.442Z,95462.81
2023-11-04T02:08:40.030Z,95448.31
2023-11-04T02:11:06.615Z,95455.16
2023-11-04T02:13:33.120Z,95448.31
2023-11-04T02:15:59.708Z,95458.56
2023-11-04T02:18:26.572Z,95451.75
2023-11-04T02:20:53.291Z,95451.75
2023-11-04T02:23:19.876Z,95453.44
2023-11-04T02:25:46.428Z,95440.66
2023-11-04T02:28:13.841Z,95453.44
2023-11-04T02:30:40.471Z,95456.84
2023-11-04T02:33:07.650Z,95453.44
2023-11-04T02:35:34.330Z,95457.72
2023-11-04T02:38:00.873Z,95450.88
2023-11-04T02:40:27.430Z,95459.41
2023-11-04T02:42:54.036Z,95465.38
2023-11-04T02:45:20.716Z,95462.84
2023-11-04T02:47:47.303Z,95465.38
2023-11-04T02:50:14.553Z,95461.97
2023-11-04T02:52:41.401Z,95466.22
2023-11-04T02:55:08.340Z,95463.66
2023-11-04T02:57:35.382Z,95458.56
2023-11-04T03:00:02.071Z,95453.44
2023-11-04T03:02:28.642Z,95450.06
2023-11-04T03:04:55.320Z,95449.19
2023-11-04T03:07:22.049Z,95455.19
2023-11-04T03:09:48.957Z,95446.63
2023-11-04T03:12:16.239Z,95443.22
2023-11-04T03:14:47.140Z,95438.09
2023-11-04T03:17:14.011Z,95444.94
2023-11-04T03:19:40.541Z,95449.19
2023-11-04T03:22:07.076Z,95447.50
2023-11-04T03:24:34.616Z,95451.75
2023-11-04T03:27:01.302Z,95465.41
2023-11-04T03:29:27.885Z,95456.88
2023-11-04T03:31:54.472Z,95456.88
2023-11-04T03:34:21.060Z,95456.88
2023-11-04T03:36:47.747Z,95450.88
2023-11-04T03:39:14.860Z,95456.00
2023-11-04T03:41:41.405Z,95455.19
2023-11-04T03:44:07.959Z,95450.06
2023-11-04T03:46:34.469Z,95456.00
2023-11-04T03:49:01.516Z,95452.63
2023-11-04T03:51:28.188Z,95458.56
2023-11-04T03:53:56.416Z,95454.31
2023-11-04T03:56:23.619Z,95450.91
2023-11-04T03:58:50.158Z,95448.31
2023-11-04T04:01:16.666Z,95444.94
2023-11-04T04:03:43.247Z,95446.63
2023-11-04T04:06:10.211Z,95448.31
2023-11-04T04:08:36.792Z,95443.19
2023-11-04T04:11:03.654Z,95435.53
2023-11-04T04:13:31.000Z,95433.84
2023-11-04T04:15:57.635Z,95431.28
2023-11-04T04:18:24.308Z,95423.59
2023-11-04T04:20:50.895Z,95420.19
2023-11-04T04:23:17.390Z,95410.81
2023-11-04T04:25:43.933Z,95414.25
2023-11-04T04:28:10.931Z,95411.69
2023-11-04T04:30:37.590Z,95407.41
2023-11-04T04:33:04.278Z,95405.69
2023-11-04T04:35:31.172Z,95404.00
2023-11-04T04:37:57.783Z,95400.59
2023-11-04T04:40:24.396Z,95402.28
2023-11-04T04:42:55.298Z,95405.69
2023-11-04T04:45:21.969Z,95409.13
2023-11-04T04:47:48.595Z,95408.25
2023-11-04T04:50:15.415Z,95404.00
2023-11-04T04:52:42.380Z,95401.44
2023-11-04T04:55:09.062Z,95395.47
2023-11-04T04:57:36.782Z,95393.78
2023-11-04T05:00:07.133Z,95391.22
2023-11-04T05:02:34.837Z,95394.59
2023-11-04T05:05:01.514Z,95393.78
2023-11-04T05:07:28.174Z,95391.22
2023-11-04T05:09:55.113Z,95381.00
2023-11-04T05:12:21.719Z,95381.81
2023-11-04T05:14:48.560Z,95383.53
2023-11-04T05:17:15.146Z,95386.09
2023-11-04T05:19:41.643Z,95385.22
2023-11-04T05:22:08.844Z,95381.81
2023-11-04T05:24:38.289Z,95380.13
2023-11-04T05:27:05.145Z,95389.47
2023-11-04T05:29:32.179Z,95369.88
2023-11-04T05:31:58.748Z,95380.97
2023-11-04T05:34:25.264Z,95375.00
2023-11-04T05:36:52.481Z,95377.53
2023-11-04T05:39:18.999Z,95377.53
2023-11-04T05:41:45.589Z,95377.53
2023-11-04T05:44:12.193Z,95374.13
2023-11-04T05:46:38.764Z,95370.75
2023-11-04T05:49:05.307Z,95367.31
2023-11-04T05:51:32.267Z,95363.91
2023-11-04T05:53:58.834Z,95363.91
2023-11-04T05:56:25.384Z,95359.66
2023-11-04T05:58:52.372Z,95354.53
2023-11-04T06:01:26.074Z,95358.78
2023-11-04T06:03:52.799Z,95354.53
2023-11-04T06:06:22.900Z,95351.97
2023-11-04T06:08:49.509Z,95356.22
2023-11-04T06:11:16.041Z,95344.31
2023-11-04T06:13:45.639Z,95346.84
2023-11-04T06:16:12.159Z,95342.59
2023-11-04T06:18:38.784Z,95333.19
2023-11-04T06:21:05.949Z,95329.81
2023-11-04T06:23:32.874Z,95325.53
2023-11-04T06:25:59.428Z,95325.53
2023-11-04T06:28:25.934Z,95322.97
2023-11-04T06:30:52.513Z,95324.72
2023-11-04T06:33:19.213Z,95325.53
2023-11-04T06:35:45.827Z,95324.72
2023-11-04T06:38:13.786Z,95322.16
2023-11-04T06:40:41.419Z,95316.19
2023-11-04T06:43:08.815Z,95318.72
2023-11-04T06:45:36.183Z,95312.75
2023-11-04T06:48:02.830Z,95318.72
2023-11-04T06:50:29.995Z,95317.88
2023-11-04T06:52:57.037Z,95315.31
2023-11-04T06:55:23.594Z,95316.19
2023-11-04T06:57:51.609Z,95315.31
2023-11-04T07:00:19.051Z,95312.75
2023-11-04T07:02:45.708Z,95312.75
2023-11-04T07:05:12.428Z,95306.81
2023-11-04T07:07:39.017Z,95304.25
2023-11-04T07:10:07.770Z,95305.09
2023-11-04T07:12:36.040Z,95306.81
2023-11-04T07:15:05.992Z,95297.41
2023-11-04T07:17:32.654Z,95298.28
2023-11-04T07:19:59.211Z,95304.25
2023-11-04T07:22:25.734Z,95305.09
2023-11-04T07:24:52.347Z,95289.72
2023-11-04T07:27:18.937Z,95292.28
2023-11-04T07:29:46.095Z,95296.56
2023-11-04T07:32:12.676Z,95294.00
2023-11-04T07:34:39.270Z,95281.22
2023-11-04T07:37:05.867Z,95285.47
2023-11-04T07:39:32.843Z,95286.31
2023-11-04T07:41:59.435Z,95288.03
2023-11-04T07:44:26.027Z,95276.94
2023-11-04T07:46:52.635Z,95269.28
2023-11-04T07:49:19.243Z,95262.44
2023-11-04T07:51:45.812Z,95265.00
2023-11-04T07:54:12.327Z,95259.03
2023-11-04T07:56:38.907Z,95259.91
2023-11-04T07:59:05.727Z,95253.09
2023-11-04T08:01:33.010Z,95250.53
2023-11-04T08:03:59.632Z,95247.97
2023-11-04T08:06:26.178Z,95254.78
2023-11-04T08:08:52.738Z,95248.81
2023-11-04T08:11:19.407Z,95250.53
2023-11-04T08:13:46.304Z,95243.69
2023-11-04T08:16:12.829Z,95241.97
2023-11-04T08:18:39.616Z,95230.88
2023-11-04T08:21:06.893Z,95223.19
2023-11-04T08:23:33.671Z,95224.94
2023-11-04T08:26:01.250Z,95218.06
2023-11-04T08:28:29.787Z,95211.28
2023-11-04T08:30:56.372Z,95212.97
2023-11-04T08:33:22.935Z,95202.75
2023-11-04T08:35:49.547Z,95196.81
2023-11-04T08:38:17.836Z,95200.19
2023-11-04T08:40:44.715Z,95190.81
2023-11-04T08:43:12.249Z,95192.53
2023-11-04T08:45:38.837Z,95189.94
2023-11-04T08:48:05.529Z,95176.34
2023-11-04T08:50:33.003Z,95184.84
2023-11-04T08:52:59.636Z,95189.13
2023-11-04T08:55:26.339Z,95179.72
2023-11-04T08:57:52.898Z,95175.47
2023-11-04T09:00:20.435Z,95183.16
2023-11-04T09:02:47.067Z,95156.03
2023-11-04T09:05:17.355Z,95167.88
2023-11-04T09:07:46.588Z,95175.53
2023-11-04T09:10:13.284Z,95174.69
2023-11-04T09:12:39.960Z,95149.22
2023-11-04T09:15:07.183Z,95165.34
2023-11-04T09:17:33.836Z,95155.16
2023-11-04T09:20:00.493Z,95147.47
2023-11-04T09:22:27.226Z,95150.91
2023-11-04T09:24:54.032Z,95157.72
2023-11-04T09:27:20.696Z,95149.19
2023-11-04T09:29:47.325Z,95138.97
2023-11-04T09:32:14.441Z,95144.97
2023-11-04T09:34:41.210Z,95138.16
2023-11-04T09:37:07.915Z,95138.16
2023-11-04T09:39:34.495Z,95139.00
2023-11-04T09:42:01.077Z,95135.59
2023-11-04T09:44:27.608Z,95135.59
2023-11-04T09:46:54.202Z,95124.53
2023-11-04T09:49:21.122Z,95125.38
2023-11-04T09:51:47.755Z,95117.72
2023-11-04T09:54:14.314Z,95112.63
2023-11-04T09:56:40.893Z,95102.44
2023-11-04T09:59:08.692Z,95106.69
2023-11-04T10:01:36.091Z,95098.16
2023-11-04T10:04:02.783Z,95093.91
2023-11-04T10:06:30.552Z,95087.13
2023-11-04T10:08:57.197Z,95076.88
2023-11-04T10:11:24.068Z,95075.13
2023-11-04T10:13:50.951Z,95073.44
2023-11-04T10:16:19.522Z,95077.69
2023-11-04T10:18:46.598Z,95070.88
2023-11-04T10:21:13.159Z,95068.28
2023-11-04T10:23:39.723Z,95058.09
2023-11-04T10:26:06.358Z,95055.50
2023-11-04T10:28:33.339Z,95048.69
2023-11-04T10:31:05.817Z,95053.81
2023-11-04T10:33:36.734Z,95032.50
2023-11-04T10:36:04.691Z,95029.03
2023-11-04T10:38:33.598Z,95015.50
2023-11-04T10:41:00.366Z,95018.78
2023-11-04T10:43:26.889Z,95009.44
2023-11-04T10:45:56.341Z,95013.66
2023-11-04T10:48:41.677Z,95011.97
2023-11-04T10:51:33.441Z,95006.84
2023-11-04T10:54:17.750Z,95003.41
2023-11-04T10:56:45.494Z,94997.50
2023-11-04T10:59:16.078Z,94990.59
2023-11-04T11:01:43.132Z,94980.38
2023-11-04T11:04:10.034Z,94982.13
2023-11-04T11:06:36.680Z,94978.69
2023-11-04T11:09:05.829Z,94982.09
2023-11-04T11:11:35.482Z,94979.56
2023-11-04T11:14:02.832Z,94969.31
2023-11-04T11:16:31.368Z,94959.09
2023-11-04T11:19:09.274Z,94955.69
2023-11-04T11:21:50.404Z,94942.03
2023-11-04T11:24:18.575Z,94932.66
2023-11-04T11:26:52.110Z,94934.31
2023-11-04T11:29:27.606Z,94928.38
2023-11-04T11:32:07.349Z,94925.81
2023-11-04T11:39:30.756Z,94905.34
2023-11-04T11:41:57.791Z,94895.09
2023-11-04T11:44:24.345Z,94887.41
2023-11-04T11:46:50.941Z,94878.91
2023-11-04T11:49:17.640Z,94882.31
2023-11-04T11:51:44.262Z,94850.91
2023-11-04T11:54:11.303Z,94861.84
2023-11-04T11:56:40.676Z,94854.19
2023-11-04T12:01:34.927Z,94847.34
2023-11-04T12:04:02.816Z,94845.63
2023-11-04T12:06:30.271Z,94830.28
2023-11-04T12:08:59.661Z,94830.28
2023-11-04T12:11:27.456Z,94826.06
2023-11-04T12:13:54.257Z,94826.00
2023-11-04T12:16:23.183Z,94815.78
2023-11-04T12:18:49.849Z,94814.91
2023-11-04T12:21:16.643Z,94797.00
2023-11-04T12:23:43.210Z,94794.47
2023-11-04T12:26:09.805Z,94796.13
2023-11-04T12:28:38.122Z,94788.50
2023-11-04T12:31:05.484Z,94776.56
2023-11-04T12:33:41.357Z,94775.69
2023-11-04T12:36:10.066Z,94767.19
2023-11-04T12:38:43.460Z,94768.88
2023-11-04T12:41:12.856Z,94761.22
2023-11-04T12:43:39.772Z,94756.97
2023-11-04T12:46:09.508Z,94747.53
2023-11-04T12:48:37.495Z,94744.13
2023-11-04T12:51:04.425Z,94747.53
2023-11-04T12:53:31.937Z,94731.38
2023-11-04T12:55:58.994Z,94722.81
2023-11-04T12:58:25.717Z,94713.44
2023-11-04T13:00:52.446Z,94714.28
2023-11-04T13:05:46.422Z,94691.28
2023-11-04T13:08:13.298Z,94682.94
2023-11-04T13:10:40.238Z,94705.81
2023-11-04T13:13:06.987Z,94698.13
2023-11-04T13:15:33.543Z,94700.69
2023-11-04T13:18:00.600Z,94698.94
2023-11-04T13:20:27.407Z,94698.13
2023-11-04T13:22:53.967Z,94697.25
2023-11-04T13:25:20.575Z,94694.69
2023-11-04T13:27:48.166Z,94676.94
2023-11-04T13:30:17.249Z,94692.13
2023-11-04T13:32:43.845Z,94690.44
2023-11-04T13:35:10.658Z,94693.81
2023-11-04T13:37:37.579Z,94670.97
2023-11-04T13:40:05.400Z,94678.50
2023-11-04T13:42:32.057Z,94664.84
2023-11-04T13:45:00.914Z,94647.81
2023-11-04T13:47:27.522Z,94635.91
2023-11-04T13:49:54.170Z,94612.03
2023-11-04T13:52:20.765Z,94588.19
2023-11-04T13:54:47.359Z,94575.41
2023-11-04T13:57:14.176Z,94559.22
2023-11-04T13:59:40.891Z,94587.31
2023-11-04T14:02:10.248Z,94597.53
2023-11-04T14:04:36.930Z,94595.88
2023-11-04T14:07:03.574Z,94632.47
2023-11-04T14:09:31.939Z,94654.66
2023-11-04T14:11:58.803Z,94660.59
2023-11-04T14:14:25.381Z,94652.19
2023-11-04T14:16:51.933Z,94664.84
2023-11-04T14:19:18.578Z,94648.66
2023-11-04T14:21:45.147Z,94660.56
2023-11-04T14:24:13.454Z,94659.75
2023-11-04T14:26:40.992Z,94664.84
2023-11-04T14:29:07.567Z,94657.19
2023-11-04T14:31:34.092Z,94636.75
2023-11-04T14:34:00.667Z,94634.16
2023-11-04T14:36:27.219Z,94652.88
2023-11-04T14:38:53.793Z,94633.28
2023-11-04T14:41:20.328Z,94623.06
2023-11-04T14:43:46.902Z,94619.63
2023-11-04T14:46:15.701Z,94621.34
2023-11-04T14:48:42.399Z,94615.34
2023-11-04T14:51:09.053Z,94594.03
2023-11-04T14:53:35.608Z,94576.13
2023-11-04T14:56:02.435Z,94578.72
2023-11-04T14:58:28.993Z,94578.66
2023-11-04T15:00:57.762Z,94587.19
2023-11-04T15:03:24.936Z,94586.34
2023-11-04T15:05:51.748Z,94586.34
2023-11-04T15:08:19.992Z,94578.66
2023-11-04T15:10:46.522Z,94568.44
2023-11-04T15:13:13.471Z,94563.31
2023-11-04T15:15:40.261Z,94571.84
2023-11-04T15:18:07.198Z,94573.53
2023-11-04T15:20:33.847Z,94553.09
2023-11-04T15:23:00.371Z,94554.09
2023-11-04T15:25:26.948Z,94573.50
2023-11-04T15:27:53.757Z,94571.00
2023-11-04T15:30:20.600Z,94583.75
2023-11-04T15:32:47.198Z,94602.50
2023-11-04T15:35:13.846Z,94622.13
2023-11-04T15:37:40.435Z,94627.25
2023-11-04T15:40:08.924Z,94615.31
2023-11-04T15:42:35.518Z,94605.09
2023-11-04T15:45:02.132Z,94608.53
2023-11-04T15:47:29.053Z,94633.25
2023-11-04T15:49:55.651Z,94652.84
2023-11-04T15:52:22.285Z,94671.63
2023-11-04T15:54:49.625Z,94669.91
2023-11-04T15:57:17.455Z,94674.16
2023-11-04T15:59:43.969Z,94672.50
2023-11-04T16:02:10.544Z,94683.56
2023-11-04T16:04:37.081Z,94681.88
2023-11-04T16:07:03.935Z,94689.53
2023-11-04T16:09:30.536Z,94697.19
2023-11-04T16:11:57.053Z,94703.16
2023-11-04T16:14:23.587Z,94686.09
2023-11-04T16:16:50.162Z,94672.59
2023-11-04T16:19:16.770Z,94675.06
2023-11-04T16:21:45.288Z,94675.88
2023-11-04T16:24:12.023Z,94662.28
2023-11-04T16:26:39.648Z,94646.06
2023-11-04T16:29:06.250Z,94640.09
2023-11-04T16:31:32.813Z,94650.31
2023-11-04T16:34:00.104Z,94647.78
2023-11-04T16:36:26.751Z,94644.41
2023-11-04T16:38:53.296Z,94632.44
2023-11-04T16:41:19.905Z,94634.13
2023-11-04T16:43:46.449Z,94626.47
2023-11-04T16:46:13.722Z,94617.94
2023-11-04T16:48:40.381Z,94618.78
2023-11-04T16:51:06.926Z,94618.78
2023-11-04T16:53:33.460Z,94620.47
2023-11-04T16:56:00.008Z,94625.56
2023-11-04T16:58:26.616Z,94631.56
2023-11-04T17:00:53.199Z,94626.53
2023-11-04T17:03:19.976Z,94619.63
2023-11-04T17:05:46.646Z,94614.53
2023-11-04T17:08:14.422Z,94615.38
2023-11-04T17:10:41.168Z,94608.56
2023-11-04T17:13:07.874Z,94591.47
2023-11-04T17:15:34.943Z,94565.91
2023-11-04T17:18:01.709Z,94551.41
2023-11-04T17:20:28.365Z,94543.75
2023-11-04T17:22:54.868Z,94530.94
2023-11-04T17:25:21.501Z,94514.75
2023-11-04T17:27:48.117Z,94492.59
2023-11-04T17:30:14.804Z,94514.75
2023-11-04T17:32:41.415Z,94527.53
2023-11-04T17:35:09.939Z,94556.53
2023-11-04T17:37:37.144Z,94542.06
2023-11-04T17:40:04.293Z,94537.78
2023-11-04T17:42:32.368Z,94536.09
2023-11-04T17:44:59.453Z,94529.28
2023-11-04T17:47:26.331Z,94529.28
2023-11-04T17:49:52.900Z,94518.19
2023-11-04T17:52:19.728Z,94497.72
2023-11-04T17:54:46.925Z,94501.97
2023-11-04T17:57:13.531Z,94501.97
2023-11-04T17:59:40.878Z,94501.97
2023-11-04T18:02:07.718Z,94501.16
2023-11-04T18:04:34.344Z,94464.66
2023-11-04T18:07:00.997Z,94449.16
2023-11-04T18:09:28.084Z,94422.72
2023-11-04T18:11:55.855Z,94415.00
2023-11-04T18:14:22.508Z,94472.09
2023-11-04T18:16:49.210Z,94466.97
2023-11-04T18:19:21.315Z,94468.69
2023-11-04T18:21:48.550Z,94452.50
2023-11-04T18:24:19.039Z,94447.41
2023-11-04T18:26:45.824Z,94435.44
2023-11-04T18:29:12.667Z,94411.75
2023-11-04T18:31:39.187Z,94431.19
2023-11-04T18:34:05.814Z,94419.28
2023-11-04T18:36:32.366Z,94437.97
2023-11-04T18:38:59.623Z,94432.03
2023-11-04T18:41:26.521Z,94421.81
2023-11-04T18:43:53.199Z,94426.03
2023-11-04T18:46:20.155Z,94421.81
2023-11-04T18:48:46.891Z,94415.84
2023-11-04T18:51:20.072Z,94446.53
2023-11-04T18:53:46.762Z,94455.88
2023-11-04T18:56:13.532Z,94461.88
2023-11-04T18:58:40.143Z,94466.13
2023-11-04T19:01:06.895Z,94482.31
2023-11-04T19:03:33.491Z,94501.94
2023-11-04T19:06:00.649Z,94526.66
2023-11-04T19:08:29.593Z,94542.84
2023-11-04T19:10:56.714Z,94555.69
2023-11-04T19:13:23.266Z,94559.91
2023-11-04T19:15:49.923Z,94547.16
2023-11-04T19:18:16.616Z,94533.47
2023-11-04T19:20:43.277Z,94501.94
2023-11-04T19:23:09.814Z,94523.25
2023-11-04T19:25:36.372Z,94519.03
2023-11-04T19:28:03.146Z,94517.28
2023-11-04T19:30:30.209Z,94511.34
2023-11-04T19:32:57.190Z,94507.94
2023-11-04T19:35:23.942Z,94498.59
2023-11-04T19:37:50.498Z,94501.97
2023-11-04T19:40:17.141Z,94494.28
2023-11-04T19:42:43.684Z,94483.25
2023-11-04T19:45:12.548Z,94491.78
2023-11-04T19:47:39.583Z,94493.47
2023-11-04T19:50:07.378Z,94478.13
2023-11-04T19:52:34.313Z,94470.47
2023-11-04T19:55:01.107Z,94467.06
2023-11-04T19:57:27.675Z,94450.03
2023-11-04T19:59:54.172Z,94437.22
2023-11-04T20:02:20.779Z,94439.78
2023-11-04T20:04:47.412Z,94429.53
2023-11-04T20:07:14.065Z,94444.00
2023-11-04T20:09:40.642Z,94436.38
2023-11-04T20:12:07.284Z,94440.59
2023-11-04T20:14:36.495Z,94450.81
2023-11-04T20:17:03.422Z,94441.50
2023-11-04T20:19:29.988Z,94449.97
2023-11-04T20:21:57.975Z,94456.78
2023-11-04T20:24:24.640Z,94478.94
2023-11-04T20:26:51.181Z,94463.59
2023-11-04T20:29:17.734Z,94449.13
2023-11-04T20:31:44.391Z,94420.13
2023-11-04T20:34:11.038Z,94384.31
2023-11-04T20:36:37.611Z,94392.00
2023-11-04T20:39:05.386Z,94380.91
2023-11-04T20:41:31.954Z,94377.50
2023-11-04T20:43:59.933Z,94374.94
2023-11-04T20:46:27.961Z,94384.28
2023-11-04T20:48:54.706Z,94388.59
2023-11-04T20:51:21.427Z,94389.41
2023-11-04T20:53:47.994Z,94398.81
2023-11-04T20:56:14.717Z,94409.88
2023-11-04T20:58:41.230Z,94411.59
2023-11-04T21:01:07.947Z,94420.94
2023-11-04T21:03:34.564Z,94435.44
2023-11-04T21:06:01.061Z,94432.84
2023-11-04T21:08:27.762Z,94451.63
2023-11-04T21:10:54.575Z,94460.97
2023-11-04T21:13:21.185Z,94464.41
2023-11-04T21:15:47.702Z,94463.53
2023-11-04T21:18:14.908Z,94461.81
2023-11-04T21:20:41.672Z,94452.47
2023-11-04T21:23:08.448Z,94449.00
2023-11-04T21:25:35.086Z,94452.44
2023-11-04T21:28:02.808Z,94435.34
2023-11-04T21:30:29.479Z,94441.31
2023-11-04T21:32:56.081Z,94421.72
2023-11-04T21:35:23.362Z,94428.56
2023-11-04T21:37:50.355Z,94427.69
2023-11-04T21:40:17.049Z,94417.44
2023-11-04T21:42:44.418Z,94402.13
2023-11-04T21:45:11.048Z,94381.03
2023-11-04T21:47:37.654Z,94390.19
2023-11-04T21:50:04.765Z,94385.94
2023-11-04T21:52:31.410Z,94385.06
2023-11-04T21:54:58.038Z,94380.81
2023-11-04T21:57:24.586Z,94374.84
2023-11-04T21:59:51.122Z,94380.81
2023-11-04T22:02:21.126Z,94385.06
2023-11-04T22:04:47.796Z,94387.63
2023-11-04T22:07:14.427Z,94387.63
2023-11-04T22:09:41.130Z,94387.63
2023-11-04T22:12:07.767Z,94392.75
2023-11-04T22:14:34.289Z,94398.78
2023-11-04T22:17:00.807Z,94406.41
2023-11-04T22:19:27.550Z,94414.94
2023-11-04T22:21:56.178Z,94429.47
2023-11-04T22:24:22.987Z,94453.34
2023-11-04T22:26:52.304Z,94462.69
2023-11-04T22:29:18.910Z,94458.44
2023-11-04T22:31:45.447Z,94460.16
2023-11-04T22:34:12.037Z,94456.75
2023-11-04T22:36:38.829Z,94480.63
2023-11-04T22:39:06.344Z,94477.19
2023-11-04T22:41:32.864Z,94476.31
2023-11-04T22:43:59.385Z,94484.00
2023-11-04T22:46:26.188Z,94479.84
2023-11-04T22:48:52.806Z,94495.97
2023-11-04T22:51:21.946Z,94481.44
2023-11-04T22:53:48.598Z,94480.63
2023-11-04T22:56:15.149Z,94485.75
2023-11-04T22:58:41.689Z,94479.78
2023-11-04T23:01:08.279Z,94478.06
2023-11-04T23:03:35.042Z,94465.28
2023-11-04T23:06:01.927Z,94455.03
2023-11-04T23:08:28.521Z,94453.31
2023-11-04T23:10:55.065Z,94452.50
2023-11-04T23:13:21.642Z,94449.94
2023-11-04T23:15:48.315Z,94441.38
2023-11-04T23:18:14.858Z,94432.03
2023-11-04T23:20:41.428Z,94418.34
2023-11-04T23:23:07.965Z,94412.38
2023-11-04T23:25:34.592Z,94403.00
2023-11-04T23:28:01.255Z,94407.28
2023-11-04T23:30:28.400Z,94405.56
2023-11-04T23:32:55.127Z,94398.81
2023-11-04T23:35:21.723Z,94401.34
2023-11-04T23:37:48.274Z,94389.41
2023-11-04T23:40:14.928Z,94379.38
2023-11-04T23:42:42.709Z,94392.84
2023-11-04T23:45:09.686Z,94382.59
2023-11-04T23:47:36.374Z,94382.59
2023-11-04T23:50:03.170Z,94384.28
2023-11-04T23:52:29.776Z,94387.69
2023-11-04T23:54:56.373Z,94388.59
2023-11-04T23:57:23.000Z,94391.09
2023-11-04T23:59:49.536Z,94401.34
